createdAt,value
2023-05-24T00:04:33.152Z,13.24
2023-05-24T00:09:33.054Z,13.36
2023-05-24T00:14:32.985Z,13.29
2023-05-24T00:19:32.911Z,13.07
2023-05-24T00:24:32.841Z,13.22
2023-05-24T00:29:32.783Z,13.51
2023-05-24T00:34:32.707Z,14.09
2023-05-24T00:39:32.646Z,13.67
2023-05-24T00:44:32.595Z,13.88
2023-05-24T00:49:32.508Z,13.88
2023-05-24T00:54:32.439Z,13.55
2023-05-24T00:59:32.376Z,13.84
2023-05-24T01:04:32.312Z,13.76
2023-05-24T01:09:32.246Z,13.62
2023-05-24T01:14:32.170Z,13.62
2023-05-24T01:19:32.110Z,13.03
2023-05-24T01:24:32.034Z,13.07
2023-05-24T01:29:31.978Z,13.41
2023-05-24T01:34:31.907Z,12.84
2023-05-24T01:39:31.844Z,13.07
2023-05-24T01:44:31.776Z,13.61
2023-05-24T01:49:31.722Z,13.69
2023-05-24T01:54:31.634Z,12.96
2023-05-24T01:59:31.599Z,13.09
2023-05-24T02:04:31.507Z,13.06
2023-05-24T02:09:31.431Z,12.70
2023-05-24T02:14:31.365Z,12.59
2023-05-24T02:19:31.334Z,13.30
2023-05-24T02:24:31.246Z,13.67
2023-05-24T02:29:31.165Z,13.88
2023-05-24T02:34:31.093Z,13.47
2023-05-24T02:39:31.035Z,13.73
2023-05-24T02:44:30.960Z,13.36
2023-05-24T02:49:30.895Z,13.32
2023-05-24T02:54:30.834Z,13.38
2023-05-24T02:59:30.763Z,12.89
2023-05-24T03:04:30.696Z,12.46
2023-05-24T03:09:30.625Z,12.19
2023-05-24T03:14:30.562Z,11.90
2023-05-24T03:19:30.510Z,11.56
2023-05-24T03:24:30.435Z,11.70
2023-05-24T03:29:30.383Z,11.87
2023-05-24T03:34:30.310Z,12.24
2023-05-24T03:39:30.228Z,12.11
2023-05-24T03:44:30.172Z,12.02
2023-05-24T03:49:30.094Z,11.78
2023-05-24T03:54:30.022Z,12.06
2023-05-24T03:59:29.964Z,11.82
2023-05-24T04:04:29.926Z,11.49
2023-05-24T04:09:29.855Z,11.10
2023-05-24T04:14:29.760Z,11.64
2023-05-24T04:19:29.696Z,11.82
2023-05-24T04:24:29.686Z,12.12
2023-05-24T04:29:29.565Z,12.05
2023-05-24T04:34:29.490Z,11.77
2023-05-24T04:39:29.430Z,11.49
2023-05-24T04:44:29.366Z,11.62
2023-05-24T04:49:29.313Z,11.50
2023-05-24T04:54:29.234Z,11.44
2023-05-24T04:59:29.165Z,11.67
2023-05-24T05:04:29.093Z,11.54
2023-05-24T05:09:29.033Z,11.64
2023-05-24T05:14:28.967Z,11.61
2023-05-24T05:19:28.902Z,11.59
2023-05-24T05:24:28.829Z,12.01
2023-05-24T05:29:28.788Z,11.97
2023-05-24T05:34:28.696Z,12.11
2023-05-24T05:39:28.633Z,12.51
2023-05-24T05:44:28.553Z,12.63
2023-05-24T05:49:28.522Z,12.96
2023-05-24T05:54:28.435Z,13.33
2023-05-24T05:59:28.368Z,13.49
2023-05-24T06:04:28.368Z,13.89
2023-05-24T06:09:28.245Z,13.81
2023-05-24T06:14:28.201Z,15.13
2023-05-24T06:19:28.106Z,16.80
2023-05-24T06:24:28.027Z,17.13
2023-05-24T06:29:27.953Z,16.11
2023-05-24T06:34:27.885Z,15.23
2023-05-24T06:39:27.823Z,15.60
2023-05-24T06:44:27.761Z,16.09
2023-05-24T06:49:27.704Z,16.31
2023-05-24T06:54:27.633Z,16.26
2023-05-24T06:59:27.569Z,15.72
2023-05-24T07:04:27.521Z,16.04
2023-05-24T07:09:27.442Z,15.82
2023-05-24T07:14:27.419Z,14.71
2023-05-24T07:19:27.304Z,13.74
2023-05-24T07:24:27.227Z,13.37
2023-05-24T07:29:27.245Z,13.41
2023-05-24T07:34:27.091Z,12.84
2023-05-24T07:39:27.057Z,12.52
2023-05-24T07:44:27.017Z,12.34
2023-05-24T07:49:26.899Z,12.52
2023-05-24T07:54:26.983Z,12.75
2023-05-24T07:59:26.828Z,12.97
2023-05-24T08:04:26.760Z,13.37
2023-05-24T08:09:26.733Z,13.11
2023-05-24T08:14:26.665Z,13.24
2023-05-24T08:19:26.576Z,13.62
2023-05-24T08:24:26.505Z,13.51
2023-05-24T08:29:26.437Z,13.11
2023-05-24T08:34:26.390Z,13.11
2023-05-24T08:39:26.322Z,13.63
2023-05-24T08:44:26.253Z,13.69
2023-05-24T08:49:26.148Z,13.83
2023-05-24T08:54:26.066Z,14.19
2023-05-24T08:59:26.215Z,14.39
2023-05-24T09:04:26.013Z,14.86
2023-05-24T09:09:25.879Z,14.61
2023-05-24T09:14:25.841Z,15.15
2023-05-24T09:19:25.763Z,15.48
2023-05-24T09:24:25.705Z,16.12
2023-05-24T09:29:25.606Z,16.09
2023-05-24T09:34:25.538Z,17.20
2023-05-24T09:39:25.520Z,17.67
2023-05-24T09:44:25.416Z,18.70
2023-05-24T09:49:25.340Z,19.98
2023-05-24T09:54:25.283Z,18.98
2023-05-24T09:59:25.526Z,18.77
2023-05-24T10:04:26.777Z,17.82
2023-05-24T10:09:25.060Z,17.67
2023-05-24T10:14:25.313Z,17.92
2023-05-24T10:19:24.950Z,18.68
2023-05-24T10:24:25.189Z,19.14
2023-05-24T10:29:24.816Z,18.68
2023-05-24T10:34:24.740Z,17.17
2023-05-24T10:39:24.869Z,18.49
2023-05-24T10:44:24.592Z,19.28
2023-05-24T10:49:24.549Z,18.61
2023-05-24T10:54:24.465Z,18.18
2023-05-24T10:59:24.393Z,18.80
2023-05-24T11:04:24.308Z,17.91
2023-05-24T11:09:24.719Z,16.88
2023-05-24T11:14:24.161Z,18.43
2023-05-24T11:19:24.097Z,18.02
2023-05-24T11:24:24.024Z,17.40
2023-05-24T11:29:23.983Z,18.21
2023-05-24T11:34:23.933Z,18.03
2023-05-24T11:39:23.892Z,18.80
2023-05-24T11:44:23.769Z,18.31
2023-05-24T11:49:23.694Z,18.87
2023-05-24T11:54:23.623Z,18.87
2023-05-24T11:59:23.588Z,18.42
2023-05-24T12:04:23.611Z,17.78
2023-05-24T12:09:23.443Z,18.77
2023-05-24T12:14:23.356Z,18.07
2023-05-24T12:19:32.887Z,18.43
2023-05-24T12:24:24.234Z,18.39
2023-05-24T12:29:23.171Z,19.21
2023-05-24T12:34:23.100Z,19.57
2023-05-24T12:39:23.033Z,19.53
2023-05-24T12:44:22.997Z,19.95
2023-05-24T12:49:22.881Z,19.20
2023-05-24T12:54:22.830Z,17.97
2023-05-24T12:59:22.736Z,17.32
2023-05-24T13:04:22.683Z,17.10
2023-05-24T13:09:22.626Z,17.50
2023-05-24T13:14:22.554Z,18.47
2023-05-24T13:19:22.503Z,19.05
2023-05-24T13:24:22.405Z,18.86
2023-05-24T13:29:36.448Z,17.87
2023-05-24T13:34:23.288Z,17.10
2023-05-24T13:39:22.210Z,17.03
2023-05-24T13:44:22.135Z,18.13
2023-05-24T13:49:22.067Z,18.65
2023-05-24T13:54:22.009Z,18.84
2023-05-24T13:59:21.925Z,18.04
2023-05-24T14:04:21.930Z,17.63
2023-05-24T14:09:21.806Z,16.98
2023-05-24T14:14:58.410Z,16.71
2023-05-24T14:19:22.693Z,16.65
2023-05-24T14:24:21.597Z,16.85
2023-05-24T14:29:21.536Z,17.14
2023-05-24T14:34:21.469Z,17.54
2023-05-24T14:39:21.398Z,17.88
2023-05-24T14:44:21.340Z,17.47
2023-05-24T14:49:21.262Z,17.33
2023-05-24T14:54:21.204Z,17.13
2023-05-24T14:59:21.165Z,17.44
2023-05-24T15:04:21.073Z,16.86
2023-05-24T15:09:21.014Z,16.92
2023-05-24T15:14:20.953Z,16.40
2023-05-24T15:19:20.865Z,16.30
2023-05-24T15:24:20.802Z,16.49
2023-05-24T15:29:20.732Z,16.52
2023-05-24T15:34:23.438Z,16.45
2023-05-24T15:39:20.597Z,16.60
2023-05-24T15:44:20.573Z,16.74
2023-05-24T15:49:20.471Z,16.50
2023-05-24T15:54:20.397Z,16.33
2023-05-24T15:59:21.560Z,16.27
2023-05-24T16:04:20.310Z,16.31
2023-05-24T16:09:20.195Z,16.31
2023-05-24T16:14:20.125Z,16.56
2023-05-24T16:19:20.053Z,16.65
2023-05-24T16:24:20.017Z,16.73
2023-05-24T16:29:19.929Z,16.96
2023-05-24T16:34:19.854Z,17.17
2023-05-24T16:39:19.805Z,17.55
2023-05-24T16:44:19.739Z,17.76
2023-05-24T16:49:19.669Z,17.91
2023-05-24T16:54:19.595Z,17.66
2023-05-24T16:59:19.565Z,17.22
2023-05-24T17:04:19.493Z,17.89
2023-05-24T17:09:19.410Z,17.95
2023-05-24T17:14:19.333Z,17.55
2023-05-24T17:19:19.266Z,17.17
2023-05-24T17:24:19.444Z,17.15
2023-05-24T17:29:19.135Z,17.11
2023-05-24T17:34:19.067Z,17.41
2023-05-24T17:39:18.991Z,17.13
2023-05-24T17:44:18.962Z,17.06
2023-05-24T17:49:18.877Z,16.77
2023-05-24T17:54:19.779Z,16.98
2023-05-24T17:59:18.753Z,16.78
2023-05-24T18:04:19.397Z,16.53
2023-05-24T18:09:18.689Z,16.25
2023-05-24T18:14:18.616Z,16.45
2023-05-24T18:19:18.541Z,16.04
2023-05-24T18:24:18.400Z,15.78
2023-05-24T18:29:18.359Z,15.41
2023-05-24T18:34:18.289Z,15.52
2023-05-24T18:39:18.180Z,15.20
2023-05-24T18:44:18.137Z,15.01
2023-05-24T18:49:18.441Z,14.95
2023-05-24T18:54:18.017Z,14.64
2023-05-24T18:59:17.944Z,14.42
2023-05-24T19:04:17.909Z,14.10
2023-05-24T19:09:17.782Z,13.94
2023-05-24T19:14:17.819Z,13.69
2023-05-24T19:19:17.653Z,13.59
2023-05-24T19:24:17.585Z,13.27
2023-05-24T19:29:17.544Z,13.00
2023-05-24T19:34:17.502Z,12.92
2023-05-24T19:39:17.418Z,12.82
2023-05-24T19:44:17.378Z,12.67
2023-05-24T19:49:17.292Z,12.79
2023-05-24T19:54:17.198Z,12.60
2023-05-24T19:59:17.149Z,12.54
2023-05-24T20:04:17.154Z,12.37
2023-05-24T20:09:17.498Z,12.01
2023-05-24T20:14:16.938Z,11.83
2023-05-24T20:19:16.857Z,11.57
2023-05-24T20:24:16.792Z,11.43
2023-05-24T20:29:16.720Z,11.35
2023-05-24T20:34:16.650Z,11.29
2023-05-24T20:39:16.578Z,11.24
2023-05-24T20:44:16.545Z,11.03
2023-05-24T20:49:16.464Z,10.89
2023-05-24T20:54:16.373Z,10.86
2023-05-24T20:59:16.320Z,10.74
2023-05-24T21:04:16.266Z,10.59
2023-05-24T21:09:16.176Z,10.32
2023-05-24T21:14:16.122Z,10.30
2023-05-24T21:19:16.051Z,10.22
2023-05-24T21:24:15.998Z,10.17
2023-05-24T21:29:15.910Z,10.10
2023-05-24T21:34:15.853Z,10.14
2023-05-24T21:39:15.779Z,9.97
2023-05-24T21:44:15.706Z,9.76
2023-05-24T21:49:15.656Z,9.58
2023-05-24T21:54:15.580Z,9.56
2023-05-24T21:59:15.522Z,9.48
2023-05-24T22:04:15.585Z,9.31
2023-05-24T22:09:15.395Z,9.20
2023-05-24T22:14:15.332Z,9.10
2023-05-24T22:19:18.451Z,9.02
2023-05-24T22:24:16.201Z,8.99
2023-05-24T22:29:15.152Z,8.94
2023-05-24T22:34:15.062Z,8.87
2023-05-24T22:39:14.995Z,8.96
2023-05-24T22:44:14.936Z,8.91
2023-05-24T22:49:14.876Z,8.86
2023-05-24T22:54:14.797Z,8.79
2023-05-24T22:59:14.736Z,8.83
2023-05-24T23:04:21.262Z,8.81
2023-05-24T23:09:15.588Z,8.75
2023-05-24T23:14:14.542Z,8.71
2023-05-24T23:19:14.449Z,8.69
2023-05-24T23:24:14.411Z,8.62
2023-05-24T23:29:14.375Z,8.62
2023-05-24T23:34:14.254Z,8.57
2023-05-24T23:39:14.179Z,8.53
2023-05-24T23:44:14.126Z,8.37
2023-05-24T23:49:14.066Z,8.32
2023-05-24T23:54:14.004Z,8.21
2023-05-24T23:59:13.906Z,8.12
